Time;durP1;ratioP1;P1;durP2;ratioP2;P2;SDS_P1;SDS_P2;PMS_P1;PMS_P2;Temp;Humidity;BMP_temperature;BMP_pressure;BME280_temperature;BME280_humidity;BME280_pressure;Samples;Min_cycle;Max_cycle;Signal;HPM_P1;HPM_P2
2022/07/08 00:01:42;;;;;;;7.60;2.72;;;;;;;;;;4997299;28;20176;-82
2022/07/08 00:04:08;;;;;;;9.75;2.47;;;;;;;;;;4996320;28;20206;-81
2022/07/08 00:06:34;;;;;;;8.80;2.78;;;;;;;;;;4995820;28;20215;-80
2022/07/08 00:09:00;;;;;;;7.93;2.30;;;;;;;;;;4995874;28;20191;-80
2022/07/08 00:11:26;;;;;;;8.13;2.25;;;;;;;;;;4994688;28;20203;-80
2022/07/08 00:13:52;;;;;;;8.57;2.45;;;;;;;;;;4996096;28;20619;-80
2022/07/08 00:16:18;;;;;;;8.20;1.88;;;;;;;;;;4995912;28;20188;-80
2022/07/08 00:18:44;;;;;;;8.45;2.17;;;;;;;;;;4994275;28;20271;-80
2022/07/08 00:21:10;;;;;;;10.40;2.30;;;;;;;;;;4995479;28;20188;-81
2022/07/08 00:23:36;;;;;;;10.45;2.85;;;;;;;;;;4995595;28;20207;-81
2022/07/08 00:26:02;;;;;;;6.13;2.20;;;;;;;;;;4994278;28;20188;-81
2022/07/08 00:28:28;;;;;;;7.93;2.88;;;;;;;;;;4996600;28;20654;-81
2022/07/08 00:30:54;;;;;;;9.20;2.58;;;;;;;;;;4992879;28;20186;-80
2022/07/08 00:33:20;;;;;;;9.27;2.38;;;;;;;;;;4994309;28;20210;-81
2022/07/08 00:35:46;;;;;;;8.60;2.30;;;;;;;;;;4993449;28;20693;-80
2022/07/08 00:38:12;;;;;;;10.77;2.42;;;;;;;;;;4992787;28;20195;-80
2022/07/08 00:40:38;;;;;;;6.78;2.30;;;;;;;;;;4994033;28;20217;-80
2022/07/08 00:43:04;;;;;;;7.22;2.15;;;;;;;;;;4995068;28;20203;-80
2022/07/08 00:45:31;;;;;;;7.50;2.33;;;;;;;;;;4994688;28;20300;-80
2022/07/08 00:47:57;;;;;;;8.43;2.70;;;;;;;;;;4994002;28;20219;-81
2022/07/08 00:50:23;;;;;;;7.80;2.20;;;;;;;;;;4994719;28;20184;-80
2022/07/08 00:52:49;;;;;;;6.85;2.10;;;;;;;;;;4995635;28;20210;-81
2022/07/08 00:55:15;;;;;;;10.70;3.03;;;;;;;;;;4994730;28;20192;-80
2022/07/08 00:57:41;;;;;;;9.90;2.38;;;;;;;;;;4994989;28;20188;-82
2022/07/08 01:00:07;;;;;;;8.95;2.55;;;;;;;;;;4996398;28;20211;-82
2022/07/08 01:02:33;;;;;;;11.05;2.60;;;;;;;;;;4995151;28;20375;-82
2022/07/08 01:04:59;;;;;;;10.18;2.78;;;;;;;;;;4995754;28;20828;-80
2022/07/08 01:07:25;;;;;;;5.45;1.77;;;;;;;;;;4996226;28;20183;-79
2022/07/08 01:09:51;;;;;;;7.13;1.85;;;;;;;;;;4994607;28;20238;-80
2022/07/08 01:12:18;;;;;;;7.80;1.75;;;;;;;;;;4994668;28;20200;-81
2022/07/08 01:14:44;;;;;;;8.10;2.17;;;;;;;;;;4994127;28;20234;-81
2022/07/08 01:17:10;;;;;;;9.95;2.22;;;;;;;;;;4994451;28;20214;-82
2022/07/08 01:19:36;;;;;;;7.25;2.00;;;;;;;;;;4994489;28;20254;-81
2022/07/08 01:22:03;;;;;;;6.18;1.70;;;;;;;;;;4993307;28;20577;-80
2022/07/08 01:24:29;;;;;;;7.95;2.00;;;;;;;;;;4994334;28;20206;-80
2022/07/08 01:26:55;;;;;;;6.68;2.40;;;;;;;;;;4995028;28;20672;-81
2022/07/08 01:29:21;;;;;;;8.00;2.28;;;;;;;;;;4995785;28;20195;-82
2022/07/08 01:31:51;;;;;;;6.18;1.75;;;;;;;;;;4993974;28;20186;-81
2022/07/08 01:34:17;;;;;;;12.98;2.30;;;;;;;;;;4994244;28;20209;-80
2022/07/08 01:36:43;;;;;;;9.55;2.17;;;;;;;;;;4998817;28;20563;-80
2022/07/08 01:39:09;;;;;;;10.13;2.15;;;;;;;;;;4999975;28;20216;-81
2022/07/08 01:41:35;;;;;;;6.07;2.15;;;;;;;;;;4999212;28;20184;-81
2022/07/08 01:44:01;;;;;;;7.72;2.00;;;;;;;;;;4997087;28;20208;-80
2022/07/08 01:46:27;;;;;;;13.02;2.67;;;;;;;;;;4998876;28;20183;-80
2022/07/08 01:48:53;;;;;;;9.43;2.45;;;;;;;;;;4998100;28;20736;-80
2022/07/08 01:51:19;;;;;;;6.00;1.85;;;;;;;;;;4996765;28;20535;-81
2022/07/08 01:53:45;;;;;;;8.57;2.20;;;;;;;;;;4999656;28;20589;-81
2022/07/08 01:56:11;;;;;;;8.30;2.20;;;;;;;;;;4998478;28;20191;-80
2022/07/08 01:58:37;;;;;;;11.00;2.25;;;;;;;;;;4997564;28;20191;-80
2022/07/08 02:01:03;;;;;;;10.32;2.40;;;;;;;;;;4996165;28;21259;-80
2022/07/08 02:03:29;;;;;;;6.20;1.83;;;;;;;;;;4998241;28;20212;-82
2022/07/08 02:05:54;;;;;;;11.75;2.15;;;;;;;;;;4997313;28;21112;-80
2022/07/08 02:08:23;;;;;;;9.95;2.30;;;;;;;;;;4998226;28;20222;-80
2022/07/08 02:13:33;;;;;;;12.68;2.35;;;;;;;;;;5001603;28;20238;-81
2022/07/08 02:16:00;;;;;;;5.20;1.83;;;;;;;;;;4996786;28;20191;-81
2022/07/08 02:18:26;;;;;;;10.82;2.50;;;;;;;;;;4995765;28;20675;-80
2022/07/08 02:20:52;;;;;;;9.45;1.80;;;;;;;;;;4998794;28;20212;-82
2022/07/08 02:23:18;;;;;;;6.35;1.77;;;;;;;;;;4999055;28;20765;-82
2022/07/08 02:25:44;;;;;;;7.30;2.25;;;;;;;;;;4997746;28;20315;-80
2022/07/08 02:28:10;;;;;;;6.70;2.17;;;;;;;;;;4997156;28;20180;-80
2022/07/08 02:30:36;;;;;;;6.63;1.60;;;;;;;;;;4994977;28;20199;-80
2022/07/08 02:33:02;;;;;;;5.72;1.70;;;;;;;;;;4997785;28;20655;-80
2022/07/08 02:35:28;;;;;;;7.20;2.30;;;;;;;;;;4998494;28;20212;-82
2022/07/08 02:37:54;;;;;;;7.15;2.10;;;;;;;;;;4997952;28;20570;-81
2022/07/08 02:40:20;;;;;;;5.63;1.58;;;;;;;;;;5012935;28;20561;-81
2022/07/08 02:42:46;;;;;;;10.85;2.42;;;;;;;;;;4998274;28;20190;-80
2022/07/08 02:45:12;;;;;;;7.15;2.38;;;;;;;;;;4998880;28;20187;-81
2022/07/08 02:47:38;;;;;;;10.80;2.00;;;;;;;;;;4997745;28;21119;-81
2022/07/08 02:50:05;;;;;;;8.32;2.10;;;;;;;;;;4997009;28;20217;-80
2022/07/08 02:52:31;;;;;;;8.10;1.90;;;;;;;;;;4997553;28;20191;-81
2022/07/08 02:54:57;;;;;;;8.73;1.90;;;;;;;;;;4997111;28;20241;-82
2022/07/08 02:57:23;;;;;;;7.65;2.13;;;;;;;;;;4998373;28;20580;-83
2022/07/08 02:59:48;;;;;;;9.80;1.85;;;;;;;;;;4998322;28;20582;-81
2022/07/08 03:02:15;;;;;;;7.25;2.20;;;;;;;;;;4995308;28;20672;-80
2022/07/08 03:04:41;;;;;;;8.40;2.13;;;;;;;;;;4996433;28;20270;-80
2022/07/08 03:07:08;;;;;;;6.03;1.95;;;;;;;;;;4996592;28;20276;-80
2022/07/08 03:09:34;;;;;;;10.65;2.50;;;;;;;;;;4997891;28;20190;-81
2022/07/08 03:12:00;;;;;;;8.27;2.03;;;;;;;;;;4997555;28;20180;-81
2022/07/08 03:14:26;;;;;;;7.30;2.28;;;;;;;;;;4996545;28;20702;-80
2022/07/08 03:16:52;;;;;;;7.15;1.92;;;;;;;;;;4995676;28;20677;-81
2022/07/08 03:19:18;;;;;;;7.72;1.77;;;;;;;;;;4996582;28;20308;-80
2022/07/08 03:21:44;;;;;;;6.53;2.10;;;;;;;;;;4998037;28;20185;-83
2022/07/08 03:24:10;;;;;;;9.57;2.28;;;;;;;;;;4996706;28;20227;-82
2022/07/08 03:26:36;;;;;;;9.00;1.75;;;;;;;;;;4997047;28;20188;-81
2022/07/08 03:29:02;;;;;;;9.23;1.55;;;;;;;;;;4997149;28;21008;-80
2022/07/08 03:31:28;;;;;;;6.47;1.73;;;;;;;;;;4995876;28;20559;-83
2022/07/08 03:33:53;;;;;;;5.35;1.83;;;;;;;;;;4996744;28;20200;-80
2022/07/08 03:36:19;;;;;;;6.80;3.03;;;;;;;;;;4996615;28;20201;-81
2022/07/08 03:38:46;;;;;;;6.10;2.05;;;;;;;;;;4996852;28;20180;-81
2022/07/08 03:41:20;;;;;;;5.65;1.70;;;;;;;;;;4995330;28;20188;-80
2022/07/08 03:43:55;;;;;;;6.45;1.52;;;;;;;;;;4997313;28;20615;-80
2022/07/08 03:46:22;;;;;;;7.63;2.15;;;;;;;;;;4995503;28;20237;-81
2022/07/08 03:48:48;;;;;;;6.20;1.70;;;;;;;;;;4997166;28;20173;-80
2022/07/08 03:51:14;;;;;;;7.32;1.90;;;;;;;;;;5012935;28;20184;-80
2022/07/08 03:53:40;;;;;;;9.43;2.38;;;;;;;;;;4996881;28;20298;-80
2022/07/08 03:56:07;;;;;;;4.25;1.65;;;;;;;;;;4995176;28;20184;-81
2022/07/08 03:58:34;;;;;;;7.75;2.00;;;;;;;;;;4995101;28;20184;-81
2022/07/08 04:01:00;;;;;;;5.57;1.70;;;;;;;;;;4997224;28;20211;-80
2022/07/08 04:03:26;;;;;;;9.45;2.10;;;;;;;;;;4997485;28;20286;-80
2022/07/08 04:05:52;;;;;;;6.05;1.55;;;;;;;;;;4997562;28;20721;-81
2022/07/08 04:08:18;;;;;;;6.88;1.70;;;;;;;;;;4997976;28;20196;-81
2022/07/08 04:10:44;;;;;;;8.30;2.00;;;;;;;;;;4997881;28;20238;-81
2022/07/08 04:13:10;;;;;;;5.82;1.55;;;;;;;;;;4994493;28;20207;-80
2022/07/08 04:15:36;;;;;;;5.45;1.85;;;;;;;;;;4995892;28;20658;-80
2022/07/08 04:18:02;;;;;;;7.25;1.70;;;;;;;;;;4996969;28;20244;-80
2022/07/08 04:20:28;;;;;;;8.95;1.95;;;;;;;;;;4995792;28;20238;-80
2022/07/08 04:22:54;;;;;;;8.57;1.85;;;;;;;;;;4995676;28;20253;-80
2022/07/08 04:25:20;;;;;;;3.10;1.48;;;;;;;;;;4997343;28;20194;-80
2022/07/08 04:27:46;;;;;;;6.07;1.45;;;;;;;;;;4998432;28;20673;-80
2022/07/08 04:30:12;;;;;;;7.82;1.85;;;;;;;;;;4995806;28;20212;-81
2022/07/08 04:32:38;;;;;;;11.13;2.10;;;;;;;;;;4995741;28;20594;-81
2022/07/08 04:35:04;;;;;;;9.43;2.40;;;;;;;;;;4995894;28;20180;-80
2022/07/08 04:37:31;;;;;;;7.90;1.77;;;;;;;;;;4995289;28;20214;-80
2022/07/08 04:39:57;;;;;;;8.05;2.05;;;;;;;;;;4996954;28;20204;-80
2022/07/08 04:42:23;;;;;;;8.30;1.98;;;;;;;;;;4996322;28;20693;-80
2022/07/08 04:44:49;;;;;;;7.55;1.98;;;;;;;;;;4995807;28;20207;-80
2022/07/08 04:47:15;;;;;;;6.07;1.65;;;;;;;;;;4997908;28;20173;-81
2022/07/08 04:49:41;;;;;;;6.15;1.55;;;;;;;;;;4997032;28;20186;-80
2022/07/08 04:52:07;;;;;;;7.72;1.55;;;;;;;;;;4994365;28;20209;-80
2022/07/08 04:54:33;;;;;;;7.78;1.73;;;;;;;;;;4997073;28;20210;-81
2022/07/08 04:56:59;;;;;;;5.43;1.70;;;;;;;;;;4996618;28;20187;-81
2022/07/08 04:59:25;;;;;;;8.82;2.05;;;;;;;;;;4998188;28;20628;-82
2022/07/08 05:01:51;;;;;;;7.65;1.85;;;;;;;;;;4998751;28;20186;-81
2022/07/08 05:04:17;;;;;;;8.65;2.10;;;;;;;;;;4997651;28;20643;-80
2022/07/08 05:06:43;;;;;;;5.03;1.48;;;;;;;;;;4994954;28;20186;-81
2022/07/08 05:09:09;;;;;;;10.98;2.10;;;;;;;;;;4995256;28;20188;-80
2022/07/08 05:11:36;;;;;;;5.18;1.48;;;;;;;;;;4995191;28;20646;-81
2022/07/08 05:14:02;;;;;;;7.28;1.77;;;;;;;;;;4993932;28;20717;-80
2022/07/08 05:16:28;;;;;;;5.80;1.20;;;;;;;;;;4995526;28;20222;-80
2022/07/08 05:18:54;;;;;;;7.32;1.90;;;;;;;;;;4996500;28;20191;-81
2022/07/08 05:21:20;;;;;;;5.43;1.65;;;;;;;;;;4995592;28;20717;-81
2022/07/08 05:23:46;;;;;;;6.65;1.85;;;;;;;;;;4995507;28;20204;-81
2022/07/08 05:26:12;;;;;;;6.80;1.90;;;;;;;;;;4995430;28;20188;-80
2022/07/08 05:28:38;;;;;;;6.18;1.40;;;;;;;;;;4993424;28;20310;-81
2022/07/08 05:31:04;;;;;;;8.43;1.85;;;;;;;;;;4997097;28;20198;-82
2022/07/08 05:33:30;;;;;;;9.77;2.00;;;;;;;;;;4996308;28;20208;-80
2022/07/08 05:35:56;;;;;;;5.55;1.58;;;;;;;;;;4995925;28;20188;-80
2022/07/08 05:38:22;;;;;;;7.90;1.75;;;;;;;;;;4994960;28;20199;-80
2022/07/08 05:40:48;;;;;;;7.65;2.00;;;;;;;;;;4995342;28;20216;-81
2022/07/08 05:43:14;;;;;;;8.68;2.17;;;;;;;;;;4996156;28;20203;-81
2022/07/08 05:45:39;;;;;;;6.82;1.65;;;;;;;;;;4996739;28;20195;-81
2022/07/08 05:48:06;;;;;;;7.03;1.45;;;;;;;;;;4994905;28;20192;-80
2022/07/08 05:50:31;;;;;;;5.95;1.73;;;;;;;;;;4996216;28;20193;-82
2022/07/08 05:52:57;;;;;;;6.53;1.90;;;;;;;;;;4996539;28;21244;-80
2022/07/08 05:55:23;;;;;;;7.68;1.83;;;;;;;;;;4994948;28;20189;-82
2022/07/08 05:57:49;;;;;;;6.43;1.83;;;;;;;;;;4997567;28;20184;-81
2022/07/08 06:00:15;;;;;;;5.45;2.10;;;;;;;;;;4992933;28;20342;-81
2022/07/08 06:02:41;;;;;;;7.53;2.13;;;;;;;;;;4996668;28;20268;-81
2022/07/08 06:05:07;;;;;;;9.20;2.35;;;;;;;;;;4994687;28;20600;-81
2022/07/08 06:07:34;;;;;;;8.52;1.60;;;;;;;;;;4994260;28;20254;-81
2022/07/08 06:10:02;;;;;;;4.85;1.95;;;;;;;;;;4995671;28;20681;-80
2022/07/08 06:12:28;;;;;;;6.95;1.95;;;;;;;;;;4994478;28;20330;-81
2022/07/08 06:14:54;;;;;;;5.43;1.90;;;;;;;;;;4998632;28;20293;-81
2022/07/08 06:17:20;;;;;;;6.75;1.88;;;;;;;;;;4994178;28;20191;-81
2022/07/08 06:19:46;;;;;;;7.45;2.10;;;;;;;;;;4994929;28;20200;-80
2022/07/08 06:22:12;;;;;;;5.70;1.55;;;;;;;;;;4997863;28;20190;-80
2022/07/08 06:24:39;;;;;;;4.20;1.60;;;;;;;;;;5001208;28;20207;-81
2022/07/08 06:27:05;;;;;;;7.00;1.52;;;;;;;;;;4999592;28;20315;-83
2022/07/08 06:29:31;;;;;;;4.80;1.75;;;;;;;;;;4998486;28;20961;-81
2022/07/08 06:31:57;;;;;;;6.57;1.95;;;;;;;;;;5001451;28;20681;-81
2022/07/08 06:34:23;;;;;;;7.93;1.83;;;;;;;;;;4997343;28;20208;-81
2022/07/08 06:36:50;;;;;;;6.78;1.30;;;;;;;;;;4999056;28;20210;-81
2022/07/08 06:39:16;;;;;;;6.07;1.48;;;;;;;;;;5003269;28;20203;-82
2022/07/08 06:41:42;;;;;;;4.40;1.60;;;;;;;;;;4997660;28;20242;-81
2022/07/08 06:44:08;;;;;;;5.88;1.50;;;;;;;;;;4999660;28;20208;-81
2022/07/08 06:46:34;;;;;;;7.47;1.70;;;;;;;;;;4997019;28;20184;-82
2022/07/08 06:49:01;;;;;;;5.15;1.52;;;;;;;;;;4998852;28;20766;-81
2022/07/08 06:51:27;;;;;;;5.75;1.92;;;;;;;;;;4992241;28;20195;-83
2022/07/08 06:56:37;;;;;;;7.88;1.75;;;;;;;;;;4991533;28;20199;-84
2022/07/08 06:59:06;;;;;;;2.65;1.20;;;;;;;;;;4990983;28;20189;-83
2022/07/08 07:01:32;;;;;;;10.65;2.05;;;;;;;;;;4990365;28;20188;-86
2022/07/08 07:03:58;;;;;;;5.63;1.38;;;;;;;;;;4988774;28;20206;-84
2022/07/08 07:06:24;;;;;;;9.88;2.03;;;;;;;;;;4987013;28;20200;-86
2022/07/08 07:08:49;;;;;;;8.40;2.03;;;;;;;;;;4993237;28;20327;-84
2022/07/08 07:11:15;;;;;;;5.95;1.40;;;;;;;;;;4987160;28;20191;-83
2022/07/08 07:13:41;;;;;;;5.78;1.42;;;;;;;;;;4987912;28;20698;-86
2022/07/08 07:16:07;;;;;;;6.63;1.55;;;;;;;;;;4992190;28;20266;-85
2022/07/08 07:18:33;;;;;;;4.55;1.25;;;;;;;;;;4986431;28;20211;-86
2022/07/08 07:21:00;;;;;;;5.50;1.52;;;;;;;;;;4985590;28;20216;-83
2022/07/08 07:23:26;;;;;;;4.28;1.38;;;;;;;;;;4995472;28;20207;-85
2022/07/08 07:25:52;;;;;;;5.70;1.70;;;;;;;;;;4990736;28;20186;-83
2022/07/08 07:28:17;;;;;;;4.53;1.30;;;;;;;;;;4995783;28;20355;-85
2022/07/08 07:30:43;;;;;;;5.15;1.73;;;;;;;;;;4995229;28;20315;-86
2022/07/08 07:33:09;;;;;;;5.72;1.65;;;;;;;;;;4988602;28;20212;-83
2022/07/08 07:35:35;;;;;;;7.68;4.40;;;;;;;;;;4991524;28;20190;-86
2022/07/08 07:38:01;;;;;;;6.47;1.60;;;;;;;;;;4988182;28;20188;-84
2022/07/08 07:40:28;;;;;;;4.35;1.27;;;;;;;;;;4987432;28;20721;-87
2022/07/08 07:42:54;;;;;;;5.13;1.30;;;;;;;;;;4988745;28;20295;-85
2022/07/08 07:45:20;;;;;;;5.07;1.42;;;;;;;;;;4994189;28;20191;-85
2022/07/08 07:47:46;;;;;;;6.07;1.73;;;;;;;;;;4994321;28;20176;-85
2022/07/08 07:50:12;;;;;;;4.57;1.30;;;;;;;;;;4986144;28;20612;-85
2022/07/08 07:52:39;;;;;;;3.50;1.60;;;;;;;;;;4987510;28;20262;-85
2022/07/08 07:55:06;;;;;;;4.55;1.80;;;;;;;;;;4983026;28;20271;-85
2022/07/08 07:57:32;;;;;;;7.03;1.58;;;;;;;;;;4987154;28;20184;-85
2022/07/08 07:59:58;;;;;;;5.57;1.88;;;;;;;;;;4988321;28;20223;-85
2022/07/08 08:02:24;;;;;;;3.15;1.30;;;;;;;;;;4992138;28;20203;-87
2022/07/08 08:04:50;;;;;;;5.68;1.67;;;;;;;;;;4993498;28;20689;-86
2022/07/08 08:07:15;;;;;;;5.38;1.67;;;;;;;;;;5000304;28;20180;-84
2022/07/08 08:09:42;;;;;;;5.75;1.20;;;;;;;;;;4993627;28;20207;-84
2022/07/08 08:12:08;;;;;;;6.20;1.80;;;;;;;;;;4992537;28;20269;-87
2022/07/08 08:14:34;;;;;;;4.82;1.20;;;;;;;;;;4992515;28;20227;-85
2022/07/08 08:17:00;;;;;;;6.18;1.52;;;;;;;;;;4995273;28;20199;-85
2022/07/08 08:19:26;;;;;;;7.90;2.17;;;;;;;;;;4991306;28;20231;-85
2022/07/08 08:21:52;;;;;;;4.80;1.58;;;;;;;;;;4997063;28;20646;-85
2022/07/08 08:24:18;;;;;;;6.13;1.70;;;;;;;;;;4994363;28;20294;-85
2022/07/08 08:26:46;;;;;;;5.50;1.40;;;;;;;;;;4995927;28;20819;-87
2022/07/08 08:29:13;;;;;;;4.95;1.48;;;;;;;;;;4993254;28;20520;-85
2022/07/08 08:31:39;;;;;;;7.75;1.85;;;;;;;;;;4979707;28;20184;-86
2022/07/08 08:34:05;;;;;;;3.67;1.60;;;;;;;;;;4996792;28;20290;-80
2022/07/08 08:36:31;;;;;;;5.28;1.50;;;;;;;;;;4990828;28;20275;-80
2022/07/08 08:38:57;;;;;;;5.78;1.80;;;;;;;;;;4993744;28;20180;-80
2022/07/08 08:41:23;;;;;;;4.88;1.15;;;;;;;;;;4990071;28;20188;-80
2022/07/08 08:43:50;;;;;;;4.28;1.20;;;;;;;;;;4990225;28;20295;-84
2022/07/08 08:46:19;;;;;;;6.03;1.63;;;;;;;;;;4998901;28;20233;-79
2022/07/08 08:48:47;;;;;;;2.42;0.88;;;;;;;;;;4998112;28;20279;-83
2022/07/08 08:51:14;;;;;;;4.30;1.02;;;;;;;;;;4995473;28;20196;-78
2022/07/08 08:53:45;;;;;;;2.90;0.93;;;;;;;;;;4998509;28;20211;-82
2022/07/08 08:56:12;;;;;;;6.35;1.98;;;;;;;;;;4995819;28;20188;-81
2022/07/08 08:58:39;;;;;;;3.10;1.10;;;;;;;;;;4994553;28;20195;-80
2022/07/08 09:01:09;;;;;;;6.15;1.30;;;;;;;;;;4990402;28;20241;-80
2022/07/08 09:03:35;;;;;;;5.80;1.40;;;;;;;;;;4989644;28;20230;-81
2022/07/08 09:06:02;;;;;;;3.60;1.13;;;;;;;;;;4990897;28;20275;-81
2022/07/08 09:08:28;;;;;;;4.43;1.08;;;;;;;;;;4992259;28;20176;-81
2022/07/08 09:10:54;;;;;;;3.67;1.08;;;;;;;;;;4988160;28;20605;-80
2022/07/08 09:13:25;;;;;;;2.65;0.90;;;;;;;;;;4986730;28;20327;-80
2022/07/08 09:15:51;;;;;;;5.97;1.25;;;;;;;;;;4991556;28;20187;-81
2022/07/08 09:18:21;;;;;;;4.75;1.45;;;;;;;;;;4995728;28;20195;-80
2022/07/08 09:20:48;;;;;;;3.05;1.00;;;;;;;;;;4993640;28;20207;-80
2022/07/08 09:23:21;;;;;;;5.28;0.98;;;;;;;;;;4992766;28;20704;-80
2022/07/08 09:25:48;;;;;;;2.95;1.60;;;;;;;;;;4991780;28;20187;-82
2022/07/08 09:28:15;;;;;;;3.40;0.82;;;;;;;;;;4988841;28;20219;-79
2022/07/08 09:30:44;;;;;;;4.15;1.10;;;;;;;;;;4987464;28;20187;-80
2022/07/08 09:33:11;;;;;;;3.83;1.08;;;;;;;;;;4989659;28;20291;-80
2022/07/08 09:35:38;;;;;;;3.85;1.00;;;;;;;;;;4984634;28;20560;-82
2022/07/08 09:38:08;;;;;;;4.43;1.17;;;;;;;;;;4989944;28;20187;-81
2022/07/08 09:40:35;;;;;;;2.40;1.20;;;;;;;;;;4993088;28;20214;-80
2022/07/08 09:43:11;;;;;;;2.90;1.15;;;;;;;;;;4992348;28;20242;-80
2022/07/08 09:45:37;;;;;;;3.40;1.00;;;;;;;;;;4991711;28;20446;-81
2022/07/08 09:48:04;;;;;;;3.70;1.40;;;;;;;;;;4997125;28;20555;-85
2022/07/08 09:50:38;;;;;;;4.05;1.33;;;;;;;;;;4997348;28;20191;-85
2022/07/08 09:53:14;;;;;;;4.85;1.02;;;;;;;;;;4988974;28;20241;-85
2022/07/08 09:55:53;;;;;;;4.30;1.00;;;;;;;;;;5008992;28;20191;-85
2022/07/08 09:58:21;;;;;;;4.90;1.27;;;;;;;;;;4991085;28;20190;-85
2022/07/08 10:00:47;;;;;;;5.90;1.25;;;19.10;99.90;;;;;;4993252;28;20366;-85
2022/07/08 10:03:13;;;;;;;3.78;1.13;;;19.20;99.90;;;;;;4993859;28;20204;-85
2022/07/08 10:05:40;;;;;;;2.83;1.10;;;19.20;99.90;;;;;;4987346;28;20183;-85
2022/07/08 10:08:07;;;;;;;3.33;1.20;;;19.40;1.00;;;;;;4992288;28;20847;-85
2022/07/08 10:10:33;;;;;;;2.85;1.25;;;19.50;1.00;;;;;;4997597;28;20597;-84
2022/07/08 10:13:00;;;;;;;3.78;1.27;;;19.60;99.90;;;;;;4988280;28;20282;-84
2022/07/08 10:15:27;;;;;;;4.95;1.02;;;19.40;99.90;;;;;;5000518;28;20203;-85
2022/07/08 10:17:55;;;;;;;3.80;1.20;;;19.40;1.00;;;;;;4990202;28;20247;-85
2022/07/08 10:20:24;;;;;;;3.15;1.30;;;19.20;99.90;;;;;;4986678;28;20212;-84
2022/07/08 10:22:53;;;;;;;4.65;1.20;;;19.20;11.60;;;;;;4993678;28;20180;-84
2022/07/08 10:25:20;;;;;;;2.38;1.00;;;19.30;99.90;;;;;;4992734;28;20183;-84
2022/07/08 10:27:46;;;;;;;5.53;1.27;;;19.30;1.00;;;;;;4992099;28;20234;-84
2022/07/08 10:30:20;;;;;;;3.05;1.35;;;19.30;1.00;;;;;;4996138;28;20195;-83
2022/07/08 10:32:47;;;;;;;4.70;1.20;;;19.50;1.00;;;;;;4994340;28;20191;-84
2022/07/08 10:35:17;;;;;;;2.90;1.00;;;19.60;1.00;;;;;;4997320;28;20203;-84
2022/07/08 10:37:52;;;;;;;3.25;1.10;;;19.60;99.90;;;;;;5000701;28;20192;-85
2022/07/08 10:40:47;;;;;;;5.82;1.40;;;19.80;1.00;;;;;;4991649;28;20393;-84
2022/07/08 10:43:19;;;;;;;3.03;1.05;;;20.30;99.90;;;;;;4994218;28;20257;-84
2022/07/08 10:46:01;;;;;;;6.18;1.20;;;20.40;99.90;;;;;;4995508;28;20180;-84
2022/07/08 10:48:48;;;;;;;2.60;1.10;;;20.30;99.90;;;;;;4989837;28;20184;-83
2022/07/08 10:51:20;;;;;;;5.25;1.30;;;20.40;99.90;;;;;;4994993;28;20192;-84
2022/07/08 10:53:51;;;;;;;4.45;1.25;;;20.40;99.90;;;;;;4990611;28;20195;-85
2022/07/08 10:56:45;;;;;;;6.47;1.33;;;20.40;99.90;;;;;;4992808;28;20195;-84
2022/07/08 10:59:25;;;;;;;3.92;1.15;;;20.20;99.90;;;;;;4996774;28;20188;-83
2022/07/08 11:02:12;;;;;;;2.05;1.10;;;20.10;1.00;;;;;;4994185;28;20296;-84
2022/07/08 11:04:38;;;;;;;2.92;1.15;;;20.00;1.00;;;;;;5009613;28;20211;-85
2022/07/08 11:07:28;;;;;;;3.47;1.35;;;19.90;1.00;;;;;;4992468;28;20180;-85
2022/07/08 11:10:03;;;;;;;3.95;1.15;;;19.80;94.00;;;;;;4990879;28;20579;-85
2022/07/08 11:12:31;;;;;;;6.35;1.52;;;19.70;1.00;;;;;;4994915;28;20279;-84
2022/07/08 11:14:59;;;;;;;4.85;1.40;;;19.60;1.00;;;;;;4997758;28;20708;-85
2022/07/08 11:17:30;;;;;;;3.38;1.17;;;19.60;99.90;;;;;;4987921;28;20193;-83
2022/07/08 11:19:58;;;;;;;3.90;1.33;;;19.60;1.00;;;;;;4987825;28;20203;-84
2022/07/08 11:22:25;;;;;;;6.55;1.58;;;19.80;1.00;;;;;;4993414;28;20179;-84
2022/07/08 11:24:53;;;;;;;3.38;1.40;;;20.00;1.00;;;;;;4989277;28;20621;-84
2022/07/08 11:27:26;;;;;;;7.10;1.40;;;20.10;99.90;;;;;;4984142;28;20191;-84
2022/07/08 11:29:54;;;;;;;2.78;1.20;;;20.20;1.00;;;;;;4989115;28;20487;-85
2022/07/08 11:32:21;;;;;;;3.08;1.23;;;20.30;99.90;;;;;;4991648;28;20271;-85
2022/07/08 11:34:48;;;;;;;2.90;1.30;;;20.30;1.00;;;;;;4987805;28;20229;-84
2022/07/08 11:37:14;;;;;;;4.15;1.20;;;20.30;1.00;;;;;;4992887;28;20192;-84
2022/07/08 11:39:42;;;;;;;3.15;1.10;;;20.50;1.00;;;;;;4984855;28;20300;-84
2022/07/08 11:42:10;;;;;;;3.17;1.20;;;20.80;99.90;;;;;;4991749;28;20221;-84
2022/07/08 11:44:36;;;;;;;4.85;1.30;;;21.00;1.00;;;;;;4991804;28;20200;-84
2022/07/08 11:47:02;;;;;;;6.38;1.40;;;21.00;1.00;;;;;;4992623;28;20754;-84
2022/07/08 11:49:28;;;;;;;4.70;1.10;;;20.80;1.00;;;;;;4983991;28;20196;-84
2022/07/08 11:51:55;;;;;;;4.32;0.98;;;20.70;1.00;;;;;;4991061;28;20666;-84
2022/07/08 11:54:23;;;;;;;3.28;1.10;;;20.60;1.00;;;;;;4994017;28;20215;-84
2022/07/08 11:56:56;;;;;;;3.70;0.90;;;20.50;1.00;;;;;;4983354;28;20193;-83
2022/07/08 11:59:22;;;;;;;1.52;1.05;;;20.50;99.90;;;;;;4989566;28;20198;-83
2022/07/08 12:01:52;;;;;;;5.22;1.20;;;20.70;99.90;;;;;;4993312;28;20238;-83
2022/07/08 12:04:18;;;;;;;5.03;1.27;;;20.80;1.00;;;;;;4991871;28;20681;-83
2022/07/08 12:06:52;;;;;;;3.70;1.10;;;20.60;99.90;;;;;;4995097;28;20658;-84
2022/07/08 12:09:20;;;;;;;3.30;1.23;;;20.60;96.60;;;;;;4994832;28;20188;-83
2022/07/08 12:11:51;;;;;;;3.10;1.20;;;20.60;99.90;;;;;;4988445;28;20185;-84
2022/07/08 12:14:17;;;;;;;2.75;1.00;;;20.40;1.00;;;;;;4987919;28;20216;-84
2022/07/08 12:16:47;;;;;;;3.03;1.20;;;20.60;99.90;;;;;;4979729;28;20279;-84
2022/07/08 12:19:37;;;;;;;2.88;1.38;;;20.70;1.00;;;;;;4995509;28;20662;-83
2022/07/08 12:22:04;;;;;;;2.88;1.35;;;20.70;1.00;;;;;;4986098;28;20188;-84
2022/07/08 12:24:39;;;;;;;2.75;1.00;;;20.60;99.90;;;;;;4987325;28;20486;-83
2022/07/08 12:27:09;;;;;;;4.05;1.20;;;20.50;1.00;;;;;;4993880;28;20183;-83
2022/07/08 12:29:37;;;;;;;4.30;1.30;;;20.30;1.00;;;;;;4987578;28;20266;-81
2022/07/08 12:32:07;;;;;;;3.17;1.10;;;20.50;99.90;;;;;;4987410;28;20187;-83
2022/07/08 12:34:33;;;;;;;3.05;1.10;;;20.60;1.00;;;;;;4989513;28;20203;-83
2022/07/08 12:37:15;;;;;;;3.50;1.10;;;20.60;1.00;;;;;;4989326;28;20191;-85
2022/07/08 12:39:41;;;;;;;5.18;1.20;;;20.70;99.90;;;;;;4992009;28;20199;-85
2022/07/08 12:42:07;;;;;;;2.47;1.23;;;20.60;1.00;;;;;;4991599;28;20202;-84
2022/07/08 12:44:48;;;;;;;6.28;1.40;;;20.90;99.90;;;;;;4992750;28;20204;-85
2022/07/08 12:47:14;;;;;;;2.55;1.00;;;21.00;99.90;;;;;;4986077;28;20191;-85
2022/07/08 12:49:41;;;;;;;4.32;1.20;;;21.20;1.00;;;;;;4990732;28;20191;-84
2022/07/08 12:52:08;;;;;;;2.60;0.88;;;21.30;1.00;;;;;;4995036;28;20184;-85
2022/07/08 12:54:35;;;;;;;5.55;1.20;;;21.30;90.60;;;;;;4986698;28;20250;-87
2022/07/08 12:57:02;;;;;;;4.35;1.25;;;21.30;1.00;;;;;;4993332;28;20188;-84
2022/07/08 12:59:28;;;;;;;3.85;1.00;;;20.90;1.00;;;;;;4986572;28;20203;-84
2022/07/08 13:01:54;;;;;;;4.20;1.48;;;20.70;24.60;;;;;;4990090;28;20231;-85
2022/07/08 13:04:20;;;;;;;2.17;0.95;;;20.70;1.00;;;;;;4988553;28;20215;-84
2022/07/08 13:06:49;;;;;;;5.78;1.20;;;20.60;99.90;;;;;;4988347;28;20188;-84
2022/07/08 13:09:15;;;;;;;2.85;0.90;;;20.60;1.00;;;;;;4990031;28;20203;-82
2022/07/08 13:11:42;;;;;;;3.30;0.90;;;20.90;1.00;;;;;;4994483;28;20187;-81
2022/07/08 13:14:08;;;;;;;2.63;1.00;;;21.00;51.50;;;;;;4996881;28;20276;-83
2022/07/08 13:16:34;;;;;;;4.00;1.58;;;21.10;99.90;;;;;;4991662;28;20654;-85
2022/07/08 13:19:00;;;;;;;2.78;0.90;;;21.10;1.00;;;;;;4995205;28;20218;-85
2022/07/08 13:21:27;;;;;;;4.40;1.20;;;21.00;2.00;;;;;;4993883;28;20204;-84
2022/07/08 13:23:53;;;;;;;3.63;1.00;;;21.20;1.00;;;;;;4994060;28;20212;-84
2022/07/08 13:26:19;;;;;;;4.18;1.25;;;21.30;1.00;;;;;;4994777;28;20195;-85
2022/07/08 13:28:44;;;;;;;5.60;1.55;;;21.50;1.00;;;;;;4992050;28;20187;-84
2022/07/08 13:31:10;;;;;;;3.10;1.30;;;21.80;1.00;;;;;;4993581;28;20243;-83
2022/07/08 13:33:35;;;;;;;2.80;1.48;;;21.80;1.00;;;;;;4995403;28;20215;-84
2022/07/08 13:36:01;;;;;;;2.60;1.13;;;21.60;99.90;;;;;;4993225;28;20230;-84
2022/07/08 13:38:27;;;;;;;4.35;1.70;;;21.70;99.90;;;;;;4998370;28;20179;-87
2022/07/08 13:40:52;;;;;;;6.60;1.90;;;21.40;99.90;;;;;;4993039;28;20370;-84
2022/07/08 13:43:19;;;;;;;2.95;1.30;;;21.10;99.90;;;;;;5003219;28;20301;-83
2022/07/08 13:45:44;;;;;;;4.10;1.40;;;21.00;99.90;;;;;;4995368;28;20253;-85
2022/07/08 13:48:10;;;;;;;3.28;1.40;;;21.00;99.90;;;;;;4994902;28;20690;-84
2022/07/08 13:50:35;;;;;;;4.05;1.90;;;21.00;1.00;;;;;;4994058;28;20196;-84
2022/07/08 13:53:01;;;;;;;8.38;1.58;;;21.00;99.90;;;;;;4993528;28;20226;-84
2022/07/08 13:55:27;;;;;;;5.57;1.55;;;21.10;99.90;;;;;;4995838;28;20646;-85
2022/07/08 13:57:52;;;;;;;2.53;1.50;;;21.00;99.90;;;;;;4995340;28;20262;-83
2022/07/08 14:00:18;;;;;;;4.65;1.23;;;21.00;58.70;;;;;;4998470;28;20211;-83
2022/07/08 14:02:43;;;;;;;3.30;1.15;;;21.10;51.90;;;;;;4993147;28;20172;-84
2022/07/08 14:05:09;;;;;;;3.80;1.05;;;21.20;51.10;;;;;;4993889;28;20187;-84
2022/07/08 14:07:35;;;;;;;2.47;1.15;;;21.30;99.90;;;;;;4994380;28;20180;-84
2022/07/08 14:10:00;;;;;;;5.07;1.25;;;21.30;99.90;;;;;;4998250;28;20190;-85
2022/07/08 14:12:26;;;;;;;5.10;1.40;;;21.30;99.90;;;;;;4989494;28;20203;-85